»·PEaware :: SWA612 KPDX-KSFO

SWA612 :: KPDX-KSFO

FLIGHT INFORMATION

Flight Status: Arrived
Operator:
Southwest Airlines
More flights by this operator :: More flights under this callsign
Pilot: Alex K. (14822)
Aircraft: BOEING 737-200
(B732)
More flights by this aircraft type
Origin: KPDX Portland Intl
United States
Destination: KSFO San Francisco Intl
United States
More flights between these airports :: More routes between these airports
Route: PTLD1 OED J501 PYE GOLDN7
File this flight plan on PilotEdge
Remarks: I dont want to go to medichino okay
Altitude:
(Current/Filed)
29,000ft
Speed:
(Current/Filed)
437kts
Departed: 11-Jan-18 03:05 PM
Arrived: 11-Jan-18 04:33 PM
Distance/Time
Traveled:
479nm/1:28
Distance/Time
To Go:
Arrived

Flight Plot

Page will automatically refresh every two minutes.

Flight plan parsing failed; only flown route is shown


Map Options




Map Legend


Flown Route
Filed Route
Departure Airport
Arrival Airport
Navaid (VOR, NDB)
Fix

Horizontal Profiles

Position Reports

Time Latitude Longitude Heading Altitude Ground
Speed
11-Jan-18 14:55 45.589827 -122.597354 208 38ft 0kts
11-Jan-18 14:56 45.589827 -122.597354 208 38ft 0kts
11-Jan-18 14:57 45.589827 -122.597354 208 38ft 0kts
11-Jan-18 14:58 45.589827 -122.597354 208 38ft 0kts
11-Jan-18 14:59 45.589827 -122.597354 208 38ft 0kts
11-Jan-18 15:00 45.589827 -122.597354 208 38ft 0kts
11-Jan-18 15:01 45.589827 -122.597354 208 38ft 0kts
11-Jan-18 15:02 45.589827 -122.597354 208 38ft 0kts
11-Jan-18 15:03 45.590012 -122.597208 209 38ft 2kts
11-Jan-18 15:04 45.590296 -122.596548 286 38ft 2kts
11-Jan-18 15:05 45.590240 -122.596383 299 38ft 0kts
11-Jan-18 15:06 45.590258 -122.596429 298 38ft 1kts
11-Jan-18 15:07 45.591100 -122.600762 223 38ft 18kts
11-Jan-18 15:08 45.587839 -122.599492 119 38ft 17kts
11-Jan-18 15:09 45.584994 -122.592182 118 38ft 24kts
11-Jan-18 15:10 45.581440 -122.583620 165 38ft 19kts
11-Jan-18 15:11 45.585663 -122.597164 297 38ft 137kts
11-Jan-18 15:12 45.611270 -122.654944 298 1767ft 214kts
11-Jan-18 15:13 45.643298 -122.735095 297 4332ft 252kts
11-Jan-18 15:14 45.678973 -122.825426 298 7117ft 267kts
11-Jan-18 15:15 45.697462 -122.920219 240 9982ft 254kts
11-Jan-18 15:16 45.627541 -122.945035 185 12015ft 301kts
11-Jan-18 15:17 45.540617 -122.937091 185 13787ft 322kts
11-Jan-18 15:18 45.450015 -122.926825 185 15418ft 342kts
11-Jan-18 15:19 45.353103 -122.911375 185 16905ft 357kts
11-Jan-18 15:20 45.252980 -122.894224 184 18321ft 369kts
11-Jan-18 15:21 45.151869 -122.882067 205 19675ft 348kts
11-Jan-18 15:22 45.056609 -122.905476 197 20938ft 364kts
11-Jan-18 15:23 44.958115 -122.911348 194 22046ft 373kts
11-Jan-18 15:24 44.861047 -122.912647 193 23008ft 378kts
11-Jan-18 15:25 44.759025 -122.912948 193 23912ft 383kts
11-Jan-18 15:26 44.661356 -122.913019 193 24663ft 387kts
11-Jan-18 15:27 44.554324 -122.913032 194 25408ft 391kts
11-Jan-18 15:28 44.445791 -122.913031 194 26064ft 395kts
11-Jan-18 15:29 44.336602 -122.913014 194 26672ft 397kts
11-Jan-18 15:30 44.227933 -122.913070 195 27248ft 399kts
11-Jan-18 15:31 44.118941 -122.913051 194 27664ft 403kts
11-Jan-18 15:32 44.008129 -122.913105 194 28090ft 405kts
11-Jan-18 15:33 43.898555 -122.913043 194 28473ft 408kts
11-Jan-18 15:34 43.787075 -122.913123 195 28832ft 410kts
11-Jan-18 15:35 43.672943 -122.913136 194 28999ft 416kts
11-Jan-18 15:36 43.557545 -122.913128 194 29031ft 424kts
11-Jan-18 15:37 43.439072 -122.913094 194 29051ft 430kts
11-Jan-18 15:38 43.319745 -122.913068 194 29051ft 435kts
11-Jan-18 15:39 43.198041 -122.913051 194 29050ft 439kts
11-Jan-18 15:40 43.076004 -122.913086 194 29050ft 442kts
11-Jan-18 15:41 42.953310 -122.913025 194 29050ft 445kts
11-Jan-18 15:42 42.831413 -122.913039 194 29051ft 446kts
11-Jan-18 15:43 42.707944 -122.913004 194 29077ft 447kts
11-Jan-18 15:44 42.583946 -122.913039 194 29077ft 449kts
11-Jan-18 15:45 42.459707 -122.913034 193 29077ft 450kts
11-Jan-18 15:46 42.334864 -122.912952 193 29077ft 451kts
11-Jan-18 15:47 42.209507 -122.912944 193 29077ft 452kts
11-Jan-18 15:48 42.084515 -122.912938 193 29077ft 453kts
11-Jan-18 15:49 41.958566 -122.912930 193 29076ft 453kts
11-Jan-18 15:50 41.833340 -122.912926 193 29077ft 454kts
11-Jan-18 15:51 41.707404 -122.912921 193 29077ft 455kts
11-Jan-18 15:52 41.581328 -122.912900 193 29077ft 455kts
11-Jan-18 15:53 41.468817 -122.912895 192 29077ft 455kts
11-Jan-18 15:54 41.342365 -122.912877 192 29137ft 454kts
11-Jan-18 15:55 41.216399 -122.912859 192 29212ft 453kts
11-Jan-18 15:56 41.090867 -122.912947 192 29212ft 454kts
11-Jan-18 15:57 40.965656 -122.912827 192 29211ft 455kts
11-Jan-18 15:58 40.840870 -122.912822 192 29212ft 456kts
11-Jan-18 15:59 40.714656 -122.912888 192 29212ft 457kts
11-Jan-18 16:00 40.588187 -122.912819 192 29212ft 458kts
11-Jan-18 16:01 40.461136 -122.912740 192 29212ft 459kts
11-Jan-18 16:02 40.333483 -122.912752 192 29212ft 460kts
11-Jan-18 16:03 40.206135 -122.912842 192 29212ft 460kts
11-Jan-18 16:04 40.077138 -122.880961 182 29296ft 474kts
11-Jan-18 16:05 39.948255 -122.869684 190 29293ft 462kts
11-Jan-18 16:06 39.821470 -122.868380 188 29293ft 463kts
11-Jan-18 16:07 39.692847 -122.867976 188 29294ft 465kts
11-Jan-18 16:08 39.563409 -122.867932 188 29310ft 467kts
11-Jan-18 16:09 39.433803 -122.867974 188 29320ft 469kts
11-Jan-18 16:10 39.303344 -122.868018 188 29316ft 471kts
11-Jan-18 16:11 39.172296 -122.867930 188 29320ft 472kts
11-Jan-18 16:12 39.043843 -122.867771 189 29303ft 439kts
11-Jan-18 16:13 38.924981 -122.867811 189 27814ft 416kts
11-Jan-18 16:14 38.812912 -122.867905 188 25796ft 407kts
11-Jan-18 16:15 38.702102 -122.867916 187 23849ft 397kts
11-Jan-18 16:16 38.593212 -122.867866 187 21903ft 389kts
11-Jan-18 16:17 38.486364 -122.867844 187 20021ft 381kts
11-Jan-18 16:18 38.381879 -122.867839 186 18144ft 374kts
11-Jan-18 16:19 38.279503 -122.867830 186 16441ft 365kts
11-Jan-18 16:20 38.176717 -122.867918 185 14485ft 377kts
11-Jan-18 16:21 38.071849 -122.869074 183 12591ft 381kts
11-Jan-18 16:22 37.986962 -122.793699 128 11001ft 384kts
11-Jan-18 16:23 37.915808 -122.695541 138 10991ft 378kts
11-Jan-18 16:24 37.838039 -122.607427 141 10990ft 376kts
11-Jan-18 16:25 37.758709 -122.521858 141 10991ft 375kts
11-Jan-18 16:26 37.679308 -122.437180 142 10991ft 375kts
11-Jan-18 16:27 37.598424 -122.357561 152 10941ft 347kts
11-Jan-18 16:28 37.520443 -122.300275 153 9907ft 309kts
11-Jan-18 16:29 37.459920 -122.235491 114 8646ft 291kts
11-Jan-18 16:30 37.428591 -122.145818 113 7430ft 269kts
11-Jan-18 16:31 37.414688 -122.059569 54 5819ft 253kts
11-Jan-18 16:32 37.471257 -122.058999 323 4182ft 231kts
11-Jan-18 16:33 37.510993 -122.114776 300 3871ft 222kts
11-Jan-18 16:34 37.538891 -122.179877 300 3089ft 200kts
11-Jan-18 16:35 37.563450 -122.238052 299 2115ft 178kts
11-Jan-18 16:36 37.584245 -122.287450 299 1272ft 136kts
11-Jan-18 16:37 37.601645 -122.328839 300 553ft 131kts
11-Jan-18 16:38 37.618415 -122.368737 297 12ft 96kts
11-Jan-18 16:39 37.622193 -122.380278 276 31ft 28kts
11-Jan-18 16:40 37.618843 -122.380268 132 32ft 24kts
11-Jan-18 16:41 37.612682 -122.382376 225 32ft 7kts
11-Jan-18 16:42 37.612845 -122.383205 297 32ft 0kts

Navigation Log

Ident Type
Flight plan parsing failed, navigation log unavailable